Flight Track Log - Related Links

Times and Time Zones

All times are in EDT time to prevent confusion due to time zone crossing. See the N474RL flight status page for this flight to view local times or setup timezone preferences in your user account.

Time Position Orientation Groundspeed Altitude Reporting Facility
EDT Latitude Longitude Course Direction KTS MPH feet Rate Location/Type
Thu 01:47:00 PM 33.4302 -79.5770 301° West  Level FlightAware Approximate
Thu 01:48:00 PM 33.4520 -79.6205 301° West  Level FlightAware Approximate
Thu 01:49:00 PM 33.4739 -79.6640 301° West  Level FlightAware Approximate
Thu 01:50:00 PM 33.4956 -79.7075 301° West  Level FlightAware Approximate
Thu 01:51:00 PM 33.5174 -79.7510 301° West  Level FlightAware Approximate
Thu 01:52:00 PM 33.5392 -79.7946 301° West  Level FlightAware Approximate
Thu 01:53:00 PM 33.5609 -79.8382 301° West  Level FlightAware Approximate
Thu 01:54:00 PM 33.5826 -79.8817 301° West  Level FlightAware Approximate
Thu 01:55:00 PM 33.6042 -79.9254 300° West  Level FlightAware Approximate
Thu 01:56:00 PM 33.6253 -79.9695 300° West  Level FlightAware Approximate
Thu 01:57:00 PM 33.6464 -80.0135 300° West  Level FlightAware Approximate
Thu 01:58:00 PM 33.6675 -80.0576 300° West  Level FlightAware Approximate
Thu 01:59:00 PM 33.6886 -80.1017 300° West  Level FlightAware Approximate
Thu 02:00:00 PM 33.7097 -80.1459 300° West  Level FlightAware Approximate
Thu 02:01:00 PM 33.7307 -80.1900 300° West  Level FlightAware Approximate
Thu 02:02:00 PM 33.7518 -80.2342 300° West  Level FlightAware Approximate
Thu 02:03:00 PM 33.7728 -80.2784 300° West  Level FlightAware Approximate
Thu 02:04:00 PM 33.7938 -80.3226 300° West  Level FlightAware Approximate
Thu 02:05:00 PM 33.8147 -80.3668 300° West  Level FlightAware Approximate
Thu 02:06:00 PM 33.8357 -80.4111 300° West  Level FlightAware Approximate
Thu 02:07:00 PM 33.8567 -80.4554 300° West  Level FlightAware Approximate
Thu 02:08:00 PM 33.8776 -80.4997 300° West  Level FlightAware Approximate
Thu 02:09:00 PM 33.8985 -80.5440 300° West  Level FlightAware Approximate
Thu 02:10:20 PM 34.0110 -80.7536 300° West 170 196 5,900  Level FlightAware ADS-B (EFHN)
Thu 02:12:12 PM 34.0544 -80.8459 300° West 170 196 5,900  Level FlightAware ADS-B (EFHN)
Thu 02:18:37 PM 34.2031 -81.1638 299° West 170 196 5,900  Level FlightAware ADS-B (EFHN)
Thu 02:20:17 PM 34.2426 -81.2484 299° West 173 199 5,900  Level FlightAware ADS-B (EFHN)
Thu 02:20:47 PM 34.2542 -81.2735 299° West 174 200 5,900  Level FlightAware ADS-B (EFHN)
Thu 02:21:11 PM 34.2638 -81.2942 299° West 173 199 5,900  Level FlightAware ADS-B (EFHN)
Thu 02:21:56 PM 34.2814 -81.3321 299° West 173 199 5,900  Level FlightAware ADS-B (EFHN)
Thu 02:22:17 PM 34.2896 -81.3498 299° West 172 198 5,900  Level FlightAware ADS-B (EFHN)
Thu 02:22:37 PM 34.2973 -81.3665 299° West 172 198 5,900  Level FlightAware ADS-B (EFHN)
Thu 02:22:53 PM 34.3037 -81.3803 299° West 172 198 5,900  Level FlightAware ADS-B (EFHN)
Thu 02:23:15 PM 34.3113 -81.3967 299° West 172 198 5,900  Level FlightAware ADS-B (EFHN)
Thu 02:23:44 PM 34.3233 -81.4225 299° West 172 198 5,900  Level FlightAware ADS-B (EFHN)
Thu 02:24:04 PM 34.3310 -81.4394 299° West 172 198 5,900  Level FlightAware ADS-B (EFHN)
Thu 02:24:30 PM 34.3411 -81.4612 299° West 171 197 5,900  Level FlightAware ADS-B (EFHN)
Thu 02:24:45 PM 34.3469 -81.4738 299° West 171 197 5,900  Level FlightAware ADS-B (EFHN)
Thu 02:25:05 PM 34.3545 -81.4902 299° West 171 197 5,900  Level FlightAware ADS-B (EFHN)
Thu 02:25:21 PM 34.3605 -81.5033 299° West 171 197 5,900  Level FlightAware ADS-B (EFHN)
Thu 02:25:41 PM 34.3684 -81.5204 299° West 172 198 5,900  Level FlightAware ADS-B (EFHN)
Thu 02:26:02 PM 34.3768 -81.5386 299° West 173 199 5,900  Level FlightAware ADS-B (EFHN)
Thu 02:26:20 PM 34.3838 -81.5538 299° West 173 199 5,900  Level FlightAware ADS-B (EFHN)
Thu 02:26:38 PM 34.3908 -81.5690 299° West 173 199 5,900  Level FlightAware ADS-B (EFHN)
Thu 02:27:03 PM 34.4003 -81.5897 299° West 174 200 5,900  Level FlightAware ADS-B (EFHN)
Thu 02:27:36 PM 34.4133 -81.6179 299° West 175 201 5,900  Level FlightAware ADS-B (EFHN)
Thu 02:28:30 PM 34.4343 -81.6637 299° West 173 199 5,900  Level FlightAware ADS-B (EFHN)
Thu 02:29:14 PM 34.4517 -81.7015 299° West 173 199 5,900  Level FlightAware ADS-B (EFHN)
Thu 02:31:00 PM 34.4875 -81.7812 299° West  Level FlightAware Approximate
Thu 02:32:00 PM 34.5077 -81.8263 299° West  Level FlightAware Approximate
Thu 02:33:00 PM 34.5278 -81.8714 299° West  Level FlightAware Approximate
Thu 02:34:00 PM 34.5480 -81.9166 298° West  Level FlightAware Approximate
Thu 02:35:00 PM 34.5682 -81.9618 298° West  Level FlightAware Approximate
Thu 02:36:00 PM 34.5883 -82.0070 298° West  Level FlightAware Approximate
Thu 02:37:00 PM 34.6084 -82.0523 298° West  Level FlightAware Approximate
Thu 02:38:00 PM 34.5883 -82.0070 118° Southeast  Level FlightAware Approximate
Thu 02:39:00 PM 34.6084 -82.0523 298° West  Level FlightAware Approximate
Thu 02:40:00 PM 34.6136 -82.0605 301° West  Level FlightAware Approximate
Thu 02:41:00 PM 34.6333 -82.1052 270° West  Level FlightAware Approximate
Thu 02:42:00 PM 34.6495 -82.1515 299° West  Level FlightAware Approximate
Thu 02:43:00 PM 34.6702 -82.1964 299° West  Level FlightAware Approximate
Thu 02:44:00 PM 34.6909 -82.2413 299° West  Level FlightAware Approximate
Thu 02:45:00 PM 34.7116 -82.2862 299° West  Level FlightAware Approximate
Thu 02:46:00 PM 34.7323 -82.3311 299° West  Level FlightAware Approximate
Thu 02:47:00 PM 34.7500 -82.3667 301° West  Level FlightAware Approximate
Thu 02:48:00 PM 34.7583 -82.3764 301° West  Level Estimated
Thu 02:49:00 PM 34.7583 -82.3764 301° West  Level Estimated
Thu 02:50:00 PM 34.7583 -82.3764 301° West  Level Estimated
Thu 02:51:00 PM 34.7583 -82.3764 301° West  Level Estimated

Login

Don't have an account? Register now (free) for customized features, flight alerts, and more!